sensor_id;sensor_type;location;lat;lon;timestamp;temperature;humidity
45319;DHT22;31057;48.498;32.260;2023-02-26T00:00:30;5.30;99.90
45319;DHT22;31057;48.498;32.260;2023-02-26T00:02:32;5.20;99.90
45319;DHT22;31057;48.498;32.260;2023-02-26T00:04:34;5.20;99.90
45319;DHT22;31057;48.498;32.260;2023-02-26T00:06:38;5.10;99.90
45319;DHT22;31057;48.498;32.260;2023-02-26T00:08:40;5.10;99.90
45319;DHT22;31057;48.498;32.260;2023-02-26T00:10:42;5.10;99.90
45319;DHT22;31057;48.498;32.260;2023-02-26T00:12:45;5.10;99.90
45319;DHT22;31057;48.498;32.260;2023-02-26T00:14:47;5.10;99.90
45319;DHT22;31057;48.498;32.260;2023-02-26T00:17:19;5.10;99.90
45319;DHT22;31057;48.498;32.260;2023-02-26T00:19:16;5.10;99.90
45319;DHT22;31057;48.498;32.260;2023-02-26T00:21:18;5.00;99.90
45319;DHT22;31057;48.498;32.260;2023-02-26T00:23:21;4.90;99.90
45319;DHT22;31057;48.498;32.260;2023-02-26T00:25:24;5.00;99.90
45319;DHT22;31057;48.498;32.260;2023-02-26T00:27:26;5.00;99.90
45319;DHT22;31057;48.498;32.260;2023-02-26T00:29:28;5.00;99.90
45319;DHT22;31057;48.498;32.260;2023-02-26T00:31:30;4.90;99.90
45319;DHT22;31057;48.498;32.260;2023-02-26T00:33:32;4.90;99.90
45319;DHT22;31057;48.498;32.260;2023-02-26T00:35:34;4.80;99.90
45319;DHT22;31057;48.498;32.260;2023-02-26T00:40:19;4.80;99.90
45319;DHT22;31057;48.498;32.260;2023-02-26T00:42:22;4.80;99.90
45319;DHT22;31057;48.498;32.260;2023-02-26T00:44:24;4.80;99.90
45319;DHT22;31057;48.498;32.260;2023-02-26T00:48:35;4.80;99.90
45319;DHT22;31057;48.498;32.260;2023-02-26T00:50:45;4.80;99.90
45319;DHT22;31057;48.498;32.260;2023-02-26T00:55:08;4.80;99.90
45319;DHT22;31057;48.498;32.260;2023-02-26T00:57:10;4.80;99.90
45319;DHT22;31057;48.498;32.260;2023-02-26T00:59:12;4.80;99.90
45319;DHT22;31057;48.498;32.260;2023-02-26T01:01:14;4.80;99.90
45319;DHT22;31057;48.498;32.260;2023-02-26T01:03:16;4.70;99.90
45319;DHT22;31057;48.498;32.260;2023-02-26T01:05:18;4.70;99.90
45319;DHT22;31057;48.498;32.260;2023-02-26T01:07:22;4.70;99.90
45319;DHT22;31057;48.498;32.260;2023-02-26T01:09:26;4.70;99.90
45319;DHT22;31057;48.498;32.260;2023-02-26T01:11:29;4.80;99.90
45319;DHT22;31057;48.498;32.260;2023-02-26T01:13:31;4.80;99.90
45319;DHT22;31057;48.498;32.260;2023-02-26T01:15:33;4.70;99.90
45319;DHT22;31057;48.498;32.260;2023-02-26T01:19:57;4.70;99.90
45319;DHT22;31057;48.498;32.260;2023-02-26T01:22:32;4.80;99.90
45319;DHT22;31057;48.498;32.260;2023-02-26T01:24:36;4.70;99.90
45319;DHT22;31057;48.498;32.260;2023-02-26T01:26:38;4.80;99.90
45319;DHT22;31057;48.498;32.260;2023-02-26T01:28:45;4.80;99.90
45319;DHT22;31057;48.498;32.260;2023-02-26T01:30:47;4.80;99.90
45319;DHT22;31057;48.498;32.260;2023-02-26T01:33:16;4.70;99.90
45319;DHT22;31057;48.498;32.260;2023-02-26T01:35:44;4.80;99.90
45319;DHT22;31057;48.498;32.260;2023-02-26T01:40:12;4.70;99.90
45319;DHT22;31057;48.498;32.260;2023-02-26T01:42:23;4.70;99.90
45319;DHT22;31057;48.498;32.260;2023-02-26T01:45:00;4.70;99.90
45319;DHT22;31057;48.498;32.260;2023-02-26T01:47:38;4.50;99.90
45319;DHT22;31057;48.498;32.260;2023-02-26T01:49:41;4.30;99.90
45319;DHT22;31057;48.498;32.260;2023-02-26T01:51:59;4.30;99.90
45319;DHT22;31057;48.498;32.260;2023-02-26T01:54:01;4.20;99.90
45319;DHT22;31057;48.498;32.260;2023-02-26T01:56:11;4.20;99.90
45319;DHT22;31057;48.498;32.260;2023-02-26T01:58:14;4.20;99.90
45319;DHT22;31057;48.498;32.260;2023-02-26T02:00:18;4.20;99.90
45319;DHT22;31057;48.498;32.260;2023-02-26T02:02:21;4.10;99.90
45319;DHT22;31057;48.498;32.260;2023-02-26T02:04:24;4.20;99.90
45319;DHT22;31057;48.498;32.260;2023-02-26T02:06:28;4.10;99.90
45319;DHT22;31057;48.498;32.260;2023-02-26T02:08:32;4.10;99.90
45319;DHT22;31057;48.498;32.260;2023-02-26T02:10:40;4.10;99.90
45319;DHT22;31057;48.498;32.260;2023-02-26T02:39:30;4.20;99.90
45319;DHT22;31057;48.498;32.260;2023-02-26T02:41:43;4.20;99.90
45319;DHT22;31057;48.498;32.260;2023-02-26T02:43:47;4.20;99.90
45319;DHT22;31057;48.498;32.260;2023-02-26T02:45:50;4.20;99.90
45319;DHT22;31057;48.498;32.260;2023-02-26T02:48:00;4.10;99.90
45319;DHT22;31057;48.498;32.260;2023-02-26T02:50:23;4.10;99.90
45319;DHT22;31057;48.498;32.260;2023-02-26T02:52:40;4.10;99.90
45319;DHT22;31057;48.498;32.260;2023-02-26T02:54:55;4.10;99.90
45319;DHT22;31057;48.498;32.260;2023-02-26T02:57:03;4.20;99.90
45319;DHT22;31057;48.498;32.260;2023-02-26T02:59:14;4.20;99.90
45319;DHT22;31057;48.498;32.260;2023-02-26T03:01:18;4.20;99.90
45319;DHT22;31057;48.498;32.260;2023-02-26T03:03:29;4.20;99.90
45319;DHT22;31057;48.498;32.260;2023-02-26T03:05:33;4.10;99.90
45319;DHT22;31057;48.498;32.260;2023-02-26T03:07:44;4.00;99.90
45319;DHT22;31057;48.498;32.260;2023-02-26T03:09:47;4.00;99.90
45319;DHT22;31057;48.498;32.260;2023-02-26T03:11:49;4.00;99.90
45319;DHT22;31057;48.498;32.260;2023-02-26T03:13:51;4.10;99.90
45319;DHT22;31057;48.498;32.260;2023-02-26T03:15:57;4.10;99.90
45319;DHT22;31057;48.498;32.260;2023-02-26T03:20:51;4.10;99.90
45319;DHT22;31057;48.498;32.260;2023-02-26T03:23:06;4.00;99.90
45319;DHT22;31057;48.498;32.260;2023-02-26T03:25:11;4.00;99.90
45319;DHT22;31057;48.498;32.260;2023-02-26T03:27:45;4.00;99.90
45319;DHT22;31057;48.498;32.260;2023-02-26T03:30:05;4.00;99.90
45319;DHT22;31057;48.498;32.260;2023-02-26T03:32:14;4.10;99.90
45319;DHT22;31057;48.498;32.260;2023-02-26T03:34:26;4.10;99.90
45319;DHT22;31057;48.498;32.260;2023-02-26T03:36:39;4.00;99.90
45319;DHT22;31057;48.498;32.260;2023-02-26T03:39:26;4.00;99.90
45319;DHT22;31057;48.498;32.260;2023-02-26T03:41:29;4.00;99.90
45319;DHT22;31057;48.498;32.260;2023-02-26T03:45:40;4.00;99.90
45319;DHT22;31057;48.498;32.260;2023-02-26T03:47:46;4.00;99.90
45319;DHT22;31057;48.498;32.260;2023-02-26T03:49:57;4.10;99.90
45319;DHT22;31057;48.498;32.260;2023-02-26T03:52:01;4.10;99.90
45319;DHT22;31057;48.498;32.260;2023-02-26T03:56:46;4.00;99.90
45319;DHT22;31057;48.498;32.260;2023-02-26T03:58:48;4.10;99.90
45319;DHT22;31057;48.498;32.260;2023-02-26T04:00:57;4.10;99.90
45319;DHT22;31057;48.498;32.260;2023-02-26T04:03:06;4.00;99.90
45319;DHT22;31057;48.498;32.260;2023-02-26T04:05:19;4.00;99.90
45319;DHT22;31057;48.498;32.260;2023-02-26T04:07:22;4.10;99.90
45319;DHT22;31057;48.498;32.260;2023-02-26T04:09:24;4.10;99.90
45319;DHT22;31057;48.498;32.260;2023-02-26T04:11:28;4.10;99.90
45319;DHT22;31057;48.498;32.260;2023-02-26T04:13:31;4.00;99.90
45319;DHT22;31057;48.498;32.260;2023-02-26T04:15:34;4.10;99.90
45319;DHT22;31057;48.498;32.260;2023-02-26T04:17:35;4.10;99.90
45319;DHT22;31057;48.498;32.260;2023-02-26T04:19:37;4.10;99.90
45319;DHT22;31057;48.498;32.260;2023-02-26T04:21:39;4.10;99.90
45319;DHT22;31057;48.498;32.260;2023-02-26T04:23:41;4.20;99.90
45319;DHT22;31057;48.498;32.260;2023-02-26T04:25:43;4.20;99.90
45319;DHT22;31057;48.498;32.260;2023-02-26T04:27:45;4.20;99.90
45319;DHT22;31057;48.498;32.260;2023-02-26T04:29:47;4.30;99.90
45319;DHT22;31057;48.498;32.260;2023-02-26T04:31:49;4.40;99.90
45319;DHT22;31057;48.498;32.260;2023-02-26T04:33:51;4.40;99.90
45319;DHT22;31057;48.498;32.260;2023-02-26T04:35:53;4.30;99.90
45319;DHT22;31057;48.498;32.260;2023-02-26T04:37:55;4.40;99.90
45319;DHT22;31057;48.498;32.260;2023-02-26T04:39:57;4.50;99.90
45319;DHT22;31057;48.498;32.260;2023-02-26T04:41:59;4.60;99.90
45319;DHT22;31057;48.498;32.260;2023-02-26T04:44:01;4.60;99.90
45319;DHT22;31057;48.498;32.260;2023-02-26T04:46:03;4.70;99.90
45319;DHT22;31057;48.498;32.260;2023-02-26T04:48:05;4.70;99.90
45319;DHT22;31057;48.498;32.260;2023-02-26T04:50:07;4.90;99.90
45319;DHT22;31057;48.498;32.260;2023-02-26T04:52:09;4.80;99.90
45319;DHT22;31057;48.498;32.260;2023-02-26T04:54:11;4.80;99.90
45319;DHT22;31057;48.498;32.260;2023-02-26T04:56:13;4.80;99.90
45319;DHT22;31057;48.498;32.260;2023-02-26T04:58:16;4.70;99.90
45319;DHT22;31057;48.498;32.260;2023-02-26T05:00:18;4.80;99.90
45319;DHT22;31057;48.498;32.260;2023-02-26T05:02:20;4.80;99.90
45319;DHT22;31057;48.498;32.260;2023-02-26T05:04:22;4.60;99.90
45319;DHT22;31057;48.498;32.260;2023-02-26T05:06:24;4.60;99.90
45319;DHT22;31057;48.498;32.260;2023-02-26T05:08:26;4.50;99.90
45319;DHT22;31057;48.498;32.260;2023-02-26T05:10:28;4.50;99.90
45319;DHT22;31057;48.498;32.260;2023-02-26T05:12:30;4.70;99.90
45319;DHT22;31057;48.498;32.260;2023-02-26T05:14:32;4.80;99.90
45319;DHT22;31057;48.498;32.260;2023-02-26T05:16:34;4.80;99.90
45319;DHT22;31057;48.498;32.260;2023-02-26T05:18:36;4.90;99.90
45319;DHT22;31057;48.498;32.260;2023-02-26T05:20:38;4.90;99.90
45319;DHT22;31057;48.498;32.260;2023-02-26T05:22:40;4.90;99.90
45319;DHT22;31057;48.498;32.260;2023-02-26T05:24:43;4.90;99.90
45319;DHT22;31057;48.498;32.260;2023-02-26T05:26:45;4.80;99.90
45319;DHT22;31057;48.498;32.260;2023-02-26T05:28:47;4.80;99.90
45319;DHT22;31057;48.498;32.260;2023-02-26T05:30:50;4.80;99.90
45319;DHT22;31057;48.498;32.260;2023-02-26T05:32:52;4.80;99.90
45319;DHT22;31057;48.498;32.260;2023-02-26T05:34:55;4.90;99.90
45319;DHT22;31057;48.498;32.260;2023-02-26T05:36:57;4.90;99.90
45319;DHT22;31057;48.498;32.260;2023-02-26T05:38:59;5.00;99.90
45319;DHT22;31057;48.498;32.260;2023-02-26T05:41:01;5.00;99.90
45319;DHT22;31057;48.498;32.260;2023-02-26T05:43:03;4.90;99.90
45319;DHT22;31057;48.498;32.260;2023-02-26T05:45:06;4.90;99.90
45319;DHT22;31057;48.498;32.260;2023-02-26T05:47:08;4.90;99.90
45319;DHT22;31057;48.498;32.260;2023-02-26T05:49:10;4.90;99.90
45319;DHT22;31057;48.498;32.260;2023-02-26T05:51:12;4.90;99.90
45319;DHT22;31057;48.498;32.260;2023-02-26T05:53:14;4.90;99.90
45319;DHT22;31057;48.498;32.260;2023-02-26T05:55:16;4.90;99.90
45319;DHT22;31057;48.498;32.260;2023-02-26T05:57:18;5.00;99.90
45319;DHT22;31057;48.498;32.260;2023-02-26T05:59:20;5.00;99.90
45319;DHT22;31057;48.498;32.260;2023-02-26T06:01:22;5.10;99.90
45319;DHT22;31057;48.498;32.260;2023-02-26T06:03:24;5.10;99.90
45319;DHT22;31057;48.498;32.260;2023-02-26T06:05:27;5.10;99.90
45319;DHT22;31057;48.498;32.260;2023-02-26T06:07:28;5.10;99.90
45319;DHT22;31057;48.498;32.260;2023-02-26T06:09:30;5.10;99.90
45319;DHT22;31057;48.498;32.260;2023-02-26T06:11:32;5.10;99.90
45319;DHT22;31057;48.498;32.260;2023-02-26T06:13:34;5.20;99.90
45319;DHT22;31057;48.498;32.260;2023-02-26T06:15:36;5.20;99.90
45319;DHT22;31057;48.498;32.260;2023-02-26T06:17:38;5.20;99.90
45319;DHT22;31057;48.498;32.260;2023-02-26T06:19:41;5.20;99.90
45319;DHT22;31057;48.498;32.260;2023-02-26T06:21:43;5.10;99.90
45319;DHT22;31057;48.498;32.260;2023-02-26T06:23:45;5.10;99.90
45319;DHT22;31057;48.498;32.260;2023-02-26T06:25:49;5.10;99.90
45319;DHT22;31057;48.498;32.260;2023-02-26T06:27:51;5.10;99.90
45319;DHT22;31057;48.498;32.260;2023-02-26T06:29:52;5.10;99.90
45319;DHT22;31057;48.498;32.260;2023-02-26T06:31:54;5.20;99.90
45319;DHT22;31057;48.498;32.260;2023-02-26T06:33:56;5.10;99.90
45319;DHT22;31057;48.498;32.260;2023-02-26T06:35:58;5.10;99.90
45319;DHT22;31057;48.498;32.260;2023-02-26T06:38:01;5.10;99.90
45319;DHT22;31057;48.498;32.260;2023-02-26T06:40:05;5.10;99.90
45319;DHT22;31057;48.498;32.260;2023-02-26T06:42:08;5.10;99.90
45319;DHT22;31057;48.498;32.260;2023-02-26T06:44:10;5.10;99.90
45319;DHT22;31057;48.498;32.260;2023-02-26T06:46:12;5.10;99.90
45319;DHT22;31057;48.498;32.260;2023-02-26T06:48:14;5.20;99.90
45319;DHT22;31057;48.498;32.260;2023-02-26T06:50:16;5.10;99.90
45319;DHT22;31057;48.498;32.260;2023-02-26T06:52:18;5.20;99.90
45319;DHT22;31057;48.498;32.260;2023-02-26T06:54:20;5.30;99.90
45319;DHT22;31057;48.498;32.260;2023-02-26T06:56:23;5.30;99.90
45319;DHT22;31057;48.498;32.260;2023-02-26T06:58:25;5.30;99.90
45319;DHT22;31057;48.498;32.260;2023-02-26T07:00:27;5.30;99.90
45319;DHT22;31057;48.498;32.260;2023-02-26T07:02:30;5.40;99.90
45319;DHT22;31057;48.498;32.260;2023-02-26T07:04:32;5.60;99.90
45319;DHT22;31057;48.498;32.260;2023-02-26T07:06:34;5.70;99.90
45319;DHT22;31057;48.498;32.260;2023-02-26T07:08:36;5.80;99.90
45319;DHT22;31057;48.498;32.260;2023-02-26T07:10:39;5.90;99.90
45319;DHT22;31057;48.498;32.260;2023-02-26T07:12:41;5.70;99.90
45319;DHT22;31057;48.498;32.260;2023-02-26T07:14:43;5.60;99.90
45319;DHT22;31057;48.498;32.260;2023-02-26T07:16:46;5.60;99.90
45319;DHT22;31057;48.498;32.260;2023-02-26T07:18:48;5.70;99.90
45319;DHT22;31057;48.498;32.260;2023-02-26T07:20:50;5.70;99.90
45319;DHT22;31057;48.498;32.260;2023-02-26T07:22:52;5.70;99.90
45319;DHT22;31057;48.498;32.260;2023-02-26T07:24:54;5.70;99.90
45319;DHT22;31057;48.498;32.260;2023-02-26T07:26:56;5.70;99.90
45319;DHT22;31057;48.498;32.260;2023-02-26T07:28:58;5.70;99.90
45319;DHT22;31057;48.498;32.260;2023-02-26T07:31:00;5.60;99.90
45319;DHT22;31057;48.498;32.260;2023-02-26T07:33:02;5.60;99.90
45319;DHT22;31057;48.498;32.260;2023-02-26T07:35:04;5.60;99.90
45319;DHT22;31057;48.498;32.260;2023-02-26T07:37:06;5.60;99.90
45319;DHT22;31057;48.498;32.260;2023-02-26T07:39:09;5.60;99.90
45319;DHT22;31057;48.498;32.260;2023-02-26T07:41:11;5.80;99.90
45319;DHT22;31057;48.498;32.260;2023-02-26T07:43:14;5.90;99.90
45319;DHT22;31057;48.498;32.260;2023-02-26T07:45:16;5.80;99.90
45319;DHT22;31057;48.498;32.260;2023-02-26T07:47:22;5.70;99.90
45319;DHT22;31057;48.498;32.260;2023-02-26T07:49:24;5.70;99.90
45319;DHT22;31057;48.498;32.260;2023-02-26T07:51:26;5.70;99.90
45319;DHT22;31057;48.498;32.260;2023-02-26T07:53:28;5.60;99.90
45319;DHT22;31057;48.498;32.260;2023-02-26T07:55:31;5.70;99.90
45319;DHT22;31057;48.498;32.260;2023-02-26T07:57:32;5.70;99.90
45319;DHT22;31057;48.498;32.260;2023-02-26T07:59:34;5.70;99.90
45319;DHT22;31057;48.498;32.260;2023-02-26T08:01:36;5.80;99.90
45319;DHT22;31057;48.498;32.260;2023-02-26T08:03:38;5.80;99.90
45319;DHT22;31057;48.498;32.260;2023-02-26T08:05:40;5.80;99.90
45319;DHT22;31057;48.498;32.260;2023-02-26T08:07:42;6.00;99.90
45319;DHT22;31057;48.498;32.260;2023-02-26T08:09:44;6.00;99.90
45319;DHT22;31057;48.498;32.260;2023-02-26T08:11:46;6.00;99.90
45319;DHT22;31057;48.498;32.260;2023-02-26T08:13:48;6.00;99.90
45319;DHT22;31057;48.498;32.260;2023-02-26T08:15:50;6.10;99.90
45319;DHT22;31057;48.498;32.260;2023-02-26T08:17:52;6.00;99.90
45319;DHT22;31057;48.498;32.260;2023-02-26T08:19:54;6.00;99.90
45319;DHT22;31057;48.498;32.260;2023-02-26T08:21:56;6.10;99.90
45319;DHT22;31057;48.498;32.260;2023-02-26T08:23:58;6.20;99.90
45319;DHT22;31057;48.498;32.260;2023-02-26T08:26:02;6.20;99.90
45319;DHT22;31057;48.498;32.260;2023-02-26T08:28:04;6.30;99.90
45319;DHT22;31057;48.498;32.260;2023-02-26T08:30:07;6.10;99.90
45319;DHT22;31057;48.498;32.260;2023-02-26T08:32:09;6.20;99.90
45319;DHT22;31057;48.498;32.260;2023-02-26T08:34:11;6.10;99.90
45319;DHT22;31057;48.498;32.260;2023-02-26T08:36:14;6.10;99.90
45319;DHT22;31057;48.498;32.260;2023-02-26T08:38:16;6.20;99.90
45319;DHT22;31057;48.498;32.260;2023-02-26T08:40:18;6.30;99.90
45319;DHT22;31057;48.498;32.260;2023-02-26T08:42:19;6.20;99.90
45319;DHT22;31057;48.498;32.260;2023-02-26T08:44:21;6.50;99.90
45319;DHT22;31057;48.498;32.260;2023-02-26T08:46:23;6.60;99.90
45319;DHT22;31057;48.498;32.260;2023-02-26T08:48:26;6.70;99.90
45319;DHT22;31057;48.498;32.260;2023-02-26T08:50:28;6.60;99.90
45319;DHT22;31057;48.498;32.260;2023-02-26T08:52:30;6.60;99.90
45319;DHT22;31057;48.498;32.260;2023-02-26T08:54:32;6.70;99.90
45319;DHT22;31057;48.498;32.260;2023-02-26T08:56:33;6.60;99.90
45319;DHT22;31057;48.498;32.260;2023-02-26T08:58:35;6.70;99.90
45319;DHT22;31057;48.498;32.260;2023-02-26T09:00:37;6.70;99.90
45319;DHT22;31057;48.498;32.260;2023-02-26T09:02:39;6.70;99.90
45319;DHT22;31057;48.498;32.260;2023-02-26T09:04:42;6.80;99.90
45319;DHT22;31057;48.498;32.260;2023-02-26T09:06:43;6.70;99.90
45319;DHT22;31057;48.498;32.260;2023-02-26T09:08:46;6.70;99.90
45319;DHT22;31057;48.498;32.260;2023-02-26T09:10:48;6.70;99.90
45319;DHT22;31057;48.498;32.260;2023-02-26T09:12:50;6.80;99.90
45319;DHT22;31057;48.498;32.260;2023-02-26T09:14:52;7.00;99.90
45319;DHT22;31057;48.498;32.260;2023-02-26T09:16:54;7.10;99.90
45319;DHT22;31057;48.498;32.260;2023-02-26T09:18:57;7.00;99.90
45319;DHT22;31057;48.498;32.260;2023-02-26T09:20:58;7.00;99.90
45319;DHT22;31057;48.498;32.260;2023-02-26T09:23:01;7.20;99.90
45319;DHT22;31057;48.498;32.260;2023-02-26T09:25:03;7.10;99.90
45319;DHT22;31057;48.498;32.260;2023-02-26T09:27:06;7.10;99.90
45319;DHT22;31057;48.498;32.260;2023-02-26T09:29:08;6.90;99.90
45319;DHT22;31057;48.498;32.260;2023-02-26T09:31:12;6.90;99.90
45319;DHT22;31057;48.498;32.260;2023-02-26T09:33:14;6.90;99.90
45319;DHT22;31057;48.498;32.260;2023-02-26T09:35:17;6.90;99.90
45319;DHT22;31057;48.498;32.260;2023-02-26T09:37:19;6.90;99.90
45319;DHT22;31057;48.498;32.260;2023-02-26T09:39:21;6.90;99.90
45319;DHT22;31057;48.498;32.260;2023-02-26T09:41:28;6.90;99.90
45319;DHT22;31057;48.498;32.260;2023-02-26T09:46:25;6.90;99.90
45319;DHT22;31057;48.498;32.260;2023-02-26T09:48:29;6.90;99.90
45319;DHT22;31057;48.498;32.260;2023-02-26T09:53:02;7.00;99.90
45319;DHT22;31057;48.498;32.260;2023-02-26T09:55:17;7.10;99.90
45319;DHT22;31057;48.498;32.260;2023-02-26T09:57:35;6.70;99.90
45319;DHT22;31057;48.498;32.260;2023-02-26T09:59:37;7.00;99.90
45319;DHT22;31057;48.498;32.260;2023-02-26T10:01:57;7.20;99.90
45319;DHT22;31057;48.498;32.260;2023-02-26T10:06:20;7.10;99.90
45319;DHT22;31057;48.498;32.260;2023-02-26T10:08:31;7.20;99.90
45319;DHT22;31057;48.498;32.260;2023-02-26T10:10:53;7.10;99.90
45319;DHT22;31057;48.498;32.260;2023-02-26T10:12:56;6.70;99.90
45319;DHT22;31057;48.498;32.260;2023-02-26T10:15:05;6.90;99.90
45319;DHT22;31057;48.498;32.260;2023-02-26T10:17:33;7.00;99.90
45319;DHT22;31057;48.498;32.260;2023-02-26T10:19:41;6.80;99.90
45319;DHT22;31057;48.498;32.260;2023-02-26T10:21:55;6.90;99.90
45319;DHT22;31057;48.498;32.260;2023-02-26T10:24:02;6.80;99.90
45319;DHT22;31057;48.498;32.260;2023-02-26T10:26:36;6.30;99.90
45319;DHT22;31057;48.498;32.260;2023-02-26T10:31:02;6.60;99.90
45319;DHT22;31057;48.498;32.260;2023-02-26T10:33:16;6.60;99.90
45319;DHT22;31057;48.498;32.260;2023-02-26T10:35:22;6.40;99.90
45319;DHT22;31057;48.498;32.260;2023-02-26T10:40:03;6.20;99.90
45319;DHT22;31057;48.498;32.260;2023-02-26T10:42:25;6.10;99.90
45319;DHT22;31057;48.498;32.260;2023-02-26T10:47:18;6.30;99.90
45319;DHT22;31057;48.498;32.260;2023-02-26T10:49:46;6.70;99.90
45319;DHT22;31057;48.498;32.260;2023-02-26T10:51:51;6.50;99.90
45319;DHT22;31057;48.498;32.260;2023-02-26T10:54:03;6.60;99.90
45319;DHT22;31057;48.498;32.260;2023-02-26T10:56:20;6.70;99.90
45319;DHT22;31057;48.498;32.260;2023-02-26T10:58:25;6.70;99.90
45319;DHT22;31057;48.498;32.260;2023-02-26T11:00:27;6.80;99.90
45319;DHT22;31057;48.498;32.260;2023-02-26T11:02:43;7.00;99.90
45319;DHT22;31057;48.498;32.260;2023-02-26T11:04:46;6.70;99.90
45319;DHT22;31057;48.498;32.260;2023-02-26T11:07:04;6.70;99.90
45319;DHT22;31057;48.498;32.260;2023-02-26T11:09:26;6.80;99.90
45319;DHT22;31057;48.498;32.260;2023-02-26T11:11:56;6.80;99.90
45319;DHT22;31057;48.498;32.260;2023-02-26T11:14:02;6.70;99.90
45319;DHT22;31057;48.498;32.260;2023-02-26T11:16:14;6.50;99.90
45319;DHT22;31057;48.498;32.260;2023-02-26T11:18:30;6.10;99.90
45319;DHT22;31057;48.498;32.260;2023-02-26T11:20:41;5.90;99.90
45319;DHT22;31057;48.498;32.260;2023-02-26T11:22:45;6.10;99.90
45319;DHT22;31057;48.498;32.260;2023-02-26T11:24:50;6.20;99.90
45319;DHT22;31057;48.498;32.260;2023-02-26T11:26:54;6.20;99.90
45319;DHT22;31057;48.498;32.260;2023-02-26T11:28:57;5.90;99.90
45319;DHT22;31057;48.498;32.260;2023-02-26T11:31:04;5.90;99.90
45319;DHT22;31057;48.498;32.260;2023-02-26T11:33:17;6.00;99.90
45319;DHT22;31057;48.498;32.260;2023-02-26T11:35:23;6.20;99.90
45319;DHT22;31057;48.498;32.260;2023-02-26T11:37:29;6.20;99.90
45319;DHT22;31057;48.498;32.260;2023-02-26T11:39:34;6.40;99.90
45319;DHT22;31057;48.498;32.260;2023-02-26T11:41:38;6.30;99.90
45319;DHT22;31057;48.498;32.260;2023-02-26T11:43:47;6.10;99.90
45319;DHT22;31057;48.498;32.260;2023-02-26T11:45:57;6.00;99.90
45319;DHT22;31057;48.498;32.260;2023-02-26T11:48:03;5.90;99.90
45319;DHT22;31057;48.498;32.260;2023-02-26T11:50:18;5.80;99.90
45319;DHT22;31057;48.498;32.260;2023-02-26T11:52:34;5.90;99.90
45319;DHT22;31057;48.498;32.260;2023-02-26T11:54:38;5.90;99.90
45319;DHT22;31057;48.498;32.260;2023-02-26T11:56:41;6.10;99.90
45319;DHT22;31057;48.498;32.260;2023-02-26T11:58:45;6.00;99.90
45319;DHT22;31057;48.498;32.260;2023-02-26T12:00:48;6.00;99.90
45319;DHT22;31057;48.498;32.260;2023-02-26T12:02:59;5.90;99.90
45319;DHT22;31057;48.498;32.260;2023-02-26T12:05:05;5.90;99.90
45319;DHT22;31057;48.498;32.260;2023-02-26T12:07:12;5.90;99.90
45319;DHT22;31057;48.498;32.260;2023-02-26T12:09:15;5.80;99.90
45319;DHT22;31057;48.498;32.260;2023-02-26T12:15:58;5.80;99.90
45319;DHT22;31057;48.498;32.260;2023-02-26T12:20:31;5.80;99.90
45319;DHT22;31057;48.498;32.260;2023-02-26T12:22:50;5.80;99.90
45319;DHT22;31057;48.498;32.260;2023-02-26T12:25:12;5.90;99.90
45319;DHT22;31057;48.498;32.260;2023-02-26T12:32:19;5.80;99.90
45319;DHT22;31057;48.498;32.260;2023-02-26T12:43:50;5.70;99.90
45319;DHT22;31057;48.498;32.260;2023-02-26T12:57:56;5.60;99.90
45319;DHT22;31057;48.498;32.260;2023-02-26T13:07:52;5.70;99.90
45319;DHT22;31057;48.498;32.260;2023-02-26T13:15:22;5.30;99.90
45319;DHT22;31057;48.498;32.260;2023-02-26T13:21:43;5.30;99.90
45319;DHT22;31057;48.498;32.260;2023-02-26T20:45:52;5.20;99.90
45319;DHT22;31057;48.498;32.260;2023-02-26T20:48:05;4.70;99.90
45319;DHT22;31057;48.498;32.260;2023-02-26T20:50:12;5.70;99.90
45319;DHT22;31057;48.498;32.260;2023-02-26T20:52:18;4.80;99.90
45319;DHT22;31057;48.498;32.260;2023-02-26T20:54:20;5.10;99.90
45319;DHT22;31057;48.498;32.260;2023-02-26T20:56:23;5.10;99.90
45319;DHT22;31057;48.498;32.260;2023-02-26T20:58:27;4.20;99.90
45319;DHT22;31057;48.498;32.260;2023-02-26T21:00:29;3.30;99.90
45319;DHT22;31057;48.498;32.260;2023-02-26T21:02:32;3.10;99.90
45319;DHT22;31057;48.498;32.260;2023-02-26T21:04:34;6.30;99.90
45319;DHT22;31057;48.498;32.260;2023-02-26T21:06:36;3.10;99.90
45319;DHT22;31057;48.498;32.260;2023-02-26T21:08:38;5.90;99.90
45319;DHT22;31057;48.498;32.260;2023-02-26T21:10:40;3.40;99.90
45319;DHT22;31057;48.498;32.260;2023-02-26T21:12:43;5.90;99.90
45319;DHT22;31057;48.498;32.260;2023-02-26T21:14:45;5.80;99.90
45319;DHT22;31057;48.498;32.260;2023-02-26T21:16:46;4.50;99.90
45319;DHT22;31057;48.498;32.260;2023-02-26T21:18:51;6.00;99.90
45319;DHT22;31057;48.498;32.260;2023-02-26T21:20:53;5.40;99.90
45319;DHT22;31057;48.498;32.260;2023-02-26T21:22:55;4.60;99.90
45319;DHT22;31057;48.498;32.260;2023-02-26T21:24:57;6.30;99.90
45319;DHT22;31057;48.498;32.260;2023-02-26T21:27:00;4.30;99.90
45319;DHT22;31057;48.498;32.260;2023-02-26T21:29:02;4.40;99.90
45319;DHT22;31057;48.498;32.260;2023-02-26T21:31:05;3.20;99.90
45319;DHT22;31057;48.498;32.260;2023-02-26T21:33:07;3.20;99.90
45319;DHT22;31057;48.498;32.260;2023-02-26T21:35:10;3.70;99.90
45319;DHT22;31057;48.498;32.260;2023-02-26T21:37:19;3.20;99.90
45319;DHT22;31057;48.498;32.260;2023-02-26T21:39:21;6.30;99.90
45319;DHT22;31057;48.498;32.260;2023-02-26T21:41:23;6.20;99.90
45319;DHT22;31057;48.498;32.260;2023-02-26T21:43:26;6.00;99.90
45319;DHT22;31057;48.498;32.260;2023-02-26T21:45:28;3.20;99.90
45319;DHT22;31057;48.498;32.260;2023-02-26T21:47:30;4.50;99.90
45319;DHT22;31057;48.498;32.260;2023-02-26T21:49:34;3.80;99.90
45319;DHT22;31057;48.498;32.260;2023-02-26T21:51:35;6.20;99.90
45319;DHT22;31057;48.498;32.260;2023-02-26T21:53:37;4.20;99.90
45319;DHT22;31057;48.498;32.260;2023-02-26T21:55:41;4.70;99.90
45319;DHT22;31057;48.498;32.260;2023-02-26T21:57:43;6.30;99.90
45319;DHT22;31057;48.498;32.260;2023-02-26T21:59:45;3.10;99.90
45319;DHT22;31057;48.498;32.260;2023-02-26T22:01:51;3.40;99.90
45319;DHT22;31057;48.498;32.260;2023-02-26T22:03:54;3.60;99.90
45319;DHT22;31057;48.498;32.260;2023-02-26T22:05:57;6.50;99.90
45319;DHT22;31057;48.498;32.260;2023-02-26T22:07:59;4.00;99.90
45319;DHT22;31057;48.498;32.260;2023-02-26T22:10:05;7.10;99.90
45319;DHT22;31057;48.498;32.260;2023-02-26T22:12:10;7.50;99.90
45319;DHT22;31057;48.498;32.260;2023-02-26T22:14:22;7.60;99.90
45319;DHT22;31057;48.498;32.260;2023-02-26T22:16:24;7.70;99.90
45319;DHT22;31057;48.498;32.260;2023-02-26T22:18:26;7.00;99.90
45319;DHT22;31057;48.498;32.260;2023-02-26T22:20:28;7.60;99.90
45319;DHT22;31057;48.498;32.260;2023-02-26T22:22:33;6.60;99.90
45319;DHT22;31057;48.498;32.260;2023-02-26T22:24:35;7.30;99.90